Time;durP1;ratioP1;P1;durP2;ratioP2;P2;SDS_P1;SDS_P2;PMS_P1;PMS_P2;Temp;Humidity;BMP_temperature;BMP_pressure;BME280_temperature;BME280_humidity;BME280_pressure;Samples;Min_cycle;Max_cycle;Signal;HPM_P1;HPM_P2
2022/11/14 00:01:07;;;;;;;;;;;3.30;99.90;;;;;;5097906;28;20062;-75
2022/11/14 00:03:33;;;;;;;;;;;3.30;99.90;;;;;;5097005;28;19918;-75
2022/11/14 00:05:58;;;;;;;;;;;3.40;99.90;;;;;;5097515;28;20351;-75
2022/11/14 00:08:24;;;;;;;;;;;3.40;99.90;;;;;;5068810;28;19912;-75
2022/11/14 00:10:50;;;;;;;;;;;3.40;99.90;;;;;;5097240;28;19912;-75
2022/11/14 00:13:16;;;;;;;;;;;3.40;99.90;;;;;;5096686;28;19912;-75
2022/11/14 00:15:42;;;;;;;;;;;3.40;99.90;;;;;;5086843;28;19912;-75
2022/11/14 00:18:07;;;;;;;;;;;3.40;99.90;;;;;;5096718;28;19965;-75
2022/11/14 00:20:33;;;;;;;;;;;3.30;99.90;;;;;;5097791;28;19908;-75
2022/11/14 00:22:58;;;;;;;;;;;3.30;99.90;;;;;;5097140;28;19912;-75
2022/11/14 00:25:24;;;;;;;;;;;3.20;99.90;;;;;;5098068;28;19912;-75
2022/11/14 00:27:50;;;;;;;;;;;3.20;99.90;;;;;;5080199;28;19990;-75
2022/11/14 00:30:15;;;;;;;;;;;3.30;99.90;;;;;;5080413;28;19916;-75
2022/11/14 00:32:44;;;;;;;;;;;3.30;99.90;;;;;;5097233;28;19912;-75
2022/11/14 00:35:09;;;;;;;;;;;3.30;99.90;;;;;;5087388;28;19915;-75
2022/11/14 00:37:35;;;;;;;;;;;3.30;99.90;;;;;;5097781;28;20395;-75
2022/11/14 00:40:00;;;;;;;;;;;3.30;99.90;;;;;;5099251;28;19916;-75
2022/11/14 00:42:26;;;;;;;;;;;3.30;99.90;;;;;;5098182;28;19908;-75
2022/11/14 00:44:51;;;;;;;;;;;3.30;99.90;;;;;;5098943;28;20379;-75
2022/11/14 00:47:17;;;;;;;;;;;3.20;99.90;;;;;;5098815;28;19919;-75
2022/11/14 00:49:42;;;;;;;;;;;3.20;99.90;;;;;;5098695;28;19913;-75
2022/11/14 00:52:08;;;;;;;;;;;3.20;99.90;;;;;;5097849;28;19919;-75
2022/11/14 00:54:33;;;;;;;;;;;3.20;99.90;;;;;;5097937;28;20015;-75
2022/11/14 00:56:59;;;;;;;;;;;3.20;99.90;;;;;;5098008;28;19916;-74
2022/11/14 00:59:25;;;;;;;;;;;3.20;99.90;;;;;;5079609;28;19912;-75
2022/11/14 01:01:50;;;;;;;;;;;3.20;99.90;;;;;;5097401;28;19912;-75
2022/11/14 01:04:16;;;;;;;;;;;3.20;99.90;;;;;;5097654;28;19920;-75
2022/11/14 01:06:41;;;;;;;;;;;3.10;99.90;;;;;;5079086;28;19916;-75
2022/11/14 01:09:07;;;;;;;;;;;3.10;99.90;;;;;;5097165;28;20391;-75
2022/11/14 01:11:32;;;;;;;;;;;3.10;99.90;;;;;;5097272;28;19908;-75
2022/11/14 01:13:58;;;;;;;;;;;3.00;99.90;;;;;;5095745;28;19912;-75
2022/11/14 01:16:23;;;;;;;;;;;3.00;99.90;;;;;;5086360;28;19909;-75
2022/11/14 01:18:49;;;;;;;;;;;3.00;99.90;;;;;;5084353;28;19969;-75
2022/11/14 01:21:14;;;;;;;;;;;3.00;99.90;;;;;;5096845;28;19958;-75
2022/11/14 01:23:40;;;;;;;;;;;3.00;99.90;;;;;;5095694;28;19908;-75
2022/11/14 01:26:08;;;;;;;;;;;3.10;99.90;;;;;;5096537;28;20402;-75
2022/11/14 01:28:34;;;;;;;;;;;3.20;99.90;;;;;;5095252;28;20003;-75
2022/11/14 01:31:10;;;;;;;;;;;3.20;99.90;;;;;;5096681;28;19916;-75
2022/11/14 01:33:35;;;;;;;;;;;3.20;99.90;;;;;;5062563;28;19917;-75
2022/11/14 01:36:01;;;;;;;;;;;3.20;99.90;;;;;;5096722;28;20307;-75
2022/11/14 01:38:26;;;;;;;;;;;3.10;99.90;;;;;;5096183;28;20287;-75
2022/11/14 01:40:52;;;;;;;;;;;3.10;99.90;;;;;;5096701;28;19912;-75
2022/11/14 01:43:17;;;;;;;;;;;3.00;99.90;;;;;;5096509;28;19912;-75
2022/11/14 01:45:46;;;;;;;;;;;2.90;99.90;;;;;;5096539;28;19908;-75
2022/11/14 01:48:19;;;;;;;;;;;2.90;99.90;;;;;;5078180;28;19908;-75
2022/11/14 01:50:44;;;;;;;;;;;3.00;99.90;;;;;;5096550;28;19931;-75
2022/11/14 01:53:10;;;;;;;;;;;3.00;99.90;;;;;;5095098;28;20396;-75
2022/11/14 01:55:36;;;;;;;;;;;3.00;99.90;;;;;;5094087;28;19915;-75
2022/11/14 01:58:01;;;;;;;;;;;3.00;99.90;;;;;;5094978;28;19916;-75
2022/11/14 02:00:27;;;;;;;;;;;3.00;99.90;;;;;;5087719;28;19943;-75
2022/11/14 02:02:53;;;;;;;;;;;3.00;99.90;;;;;;5092428;28;19912;-75
2022/11/14 02:05:19;;;;;;;;;;;3.00;99.90;;;;;;5095102;28;19916;-75
2022/11/14 02:07:44;;;;;;;;;;;3.00;99.90;;;;;;5087213;28;20398;-75
2022/11/14 02:10:15;;;;;;;;;;;3.00;99.90;;;;;;5095723;28;19912;-75
2022/11/14 02:12:40;;;;;;;;;;;3.00;99.90;;;;;;5085144;28;19909;-75
2022/11/14 02:15:06;;;;;;;;;;;3.00;99.90;;;;;;5095469;28;19912;-75
2022/11/14 02:17:32;;;;;;;;;;;3.00;99.90;;;;;;5095151;28;19920;-75
2022/11/14 02:20:10;;;;;;;;;;;3.00;99.90;;;;;;5096004;28;19916;-75
2022/11/14 02:22:36;;;;;;;;;;;2.90;99.90;;;;;;5076973;28;19912;-75
2022/11/14 02:25:02;;;;;;;;;;;3.00;99.90;;;;;;5095213;28;20036;-75
2022/11/14 02:27:28;;;;;;;;;;;2.90;99.90;;;;;;5095470;28;19912;-75
2022/11/14 02:29:53;;;;;;;;;;;3.00;99.90;;;;;;5095453;28;19938;-75
2022/11/14 02:32:19;;;;;;;;;;;3.10;99.90;;;;;;5095192;28;20402;-75
2022/11/14 02:34:44;;;;;;;;;;;3.00;99.90;;;;;;5095772;28;19920;-75
2022/11/14 02:37:10;;;;;;;;;;;3.00;99.90;;;;;;5095723;28;19923;-77
2022/11/14 02:39:39;;;;;;;;;;;3.00;99.90;;;;;;5096081;28;19919;-75
2022/11/14 02:42:05;;;;;;;;;;;3.00;99.90;;;;;;5060427;28;19919;-75
2022/11/14 02:44:30;;;;;;;;;;;3.10;99.90;;;;;;5077368;28;20260;-75
2022/11/14 02:46:56;;;;;;;;;;;3.00;99.90;;;;;;5095560;28;19913;-75
2022/11/14 02:49:22;;;;;;;;;;;3.00;99.90;;;;;;5093523;28;19913;-76
2022/11/14 02:51:47;;;;;;;;;;;2.90;99.90;;;;;;5094553;28;20010;-75
2022/11/14 02:54:13;;;;;;;;;;;2.80;99.90;;;;;;5093787;28;20331;-75
2022/11/14 02:56:38;;;;;;;;;;;2.80;99.90;;;;;;5082927;28;19931;-78
2022/11/14 02:59:04;;;;;;;;;;;2.80;99.90;;;;;;5081981;28;20073;-75
2022/11/14 03:01:29;;;;;;;;;;;2.80;99.90;;;;;;5094656;28;19919;-75
2022/11/14 03:03:55;;;;;;;;;;;2.80;99.90;;;;;;5093526;28;19920;-75
2022/11/14 03:06:20;;;;;;;;;;;2.80;99.90;;;;;;5069456;28;20447;-75
2022/11/14 03:08:46;;;;;;;;;;;2.80;99.90;;;;;;5098171;28;20292;-76
2022/11/14 03:11:11;;;;;;;;;;;2.70;99.90;;;;;;5097175;28;20016;-76
2022/11/14 03:13:37;;;;;;;;;;;2.60;99.90;;;;;;5090528;28;19947;-76
2022/11/14 03:16:10;;;;;;;;;;;2.60;99.90;;;;;;5080847;28;19913;-75
2022/11/14 03:18:35;;;;;;;;;;;2.60;99.90;;;;;;5080174;28;19997;-75
2022/11/14 03:21:05;;;;;;;;;;;2.60;99.90;;;;;;5098585;28;20344;-75
2022/11/14 03:23:31;;;;;;;;;;;2.60;99.90;;;;;;5098119;28;19908;-75
2022/11/14 03:26:01;;;;;;;;;;;2.60;99.90;;;;;;5098516;28;19931;-75
2022/11/14 03:28:26;;;;;;;;;;;2.60;99.90;;;;;;5081934;28;19916;-76
2022/11/14 03:30:52;;;;;;;;;;;2.60;99.90;;;;;;5094983;28;19977;-76
2022/11/14 03:33:17;;;;;;;;;;;2.60;99.90;;;;;;5097385;28;20064;-75
2022/11/14 03:35:43;;;;;;;;;;;2.60;99.90;;;;;;5097819;28;19912;-75
2022/11/14 03:38:09;;;;;;;;;;;2.60;99.90;;;;;;5089657;28;20429;-75
2022/11/14 03:40:38;;;;;;;;;;;2.70;99.90;;;;;;5080298;28;19947;-75
2022/11/14 03:43:03;;;;;;;;;;;2.70;99.90;;;;;;5080027;28;20355;-75
2022/11/14 03:45:29;;;;;;;;;;;2.80;99.90;;;;;;5098258;28;19953;-75
2022/11/14 03:47:54;;;;;;;;;;;2.80;99.90;;;;;;5097981;28;19913;-75
2022/11/14 03:50:20;;;;;;;;;;;2.80;99.90;;;;;;5079731;28;20427;-75
2022/11/14 03:52:47;;;;;;;;;;;2.80;99.90;;;;;;5097431;28;19939;-75
2022/11/14 03:55:13;;;;;;;;;;;2.80;99.90;;;;;;5097568;28;19924;-75
2022/11/14 03:57:38;;;;;;;;;;;2.80;99.90;;;;;;5098281;28;20345;-75
2022/11/14 04:00:04;;;;;;;;;;;2.70;99.90;;;;;;5097594;28;19912;-75
2022/11/14 04:02:30;;;;;;;;;;;2.70;99.90;;;;;;5097402;28;19908;-75
2022/11/14 04:04:55;;;;;;;;;;;2.70;99.90;;;;;;5079757;28;19916;-75
2022/11/14 04:07:21;;;;;;;;;;;2.70;99.90;;;;;;5097450;28;20128;-75
2022/11/14 04:09:46;;;;;;;;;;;2.70;99.90;;;;;;5097336;28;19935;-75
2022/11/14 04:12:12;;;;;;;;;;;2.60;99.90;;;;;;5097569;28;19950;-75
2022/11/14 04:14:38;;;;;;;;;;;2.60;99.90;;;;;;5098001;28;20000;-75
2022/11/14 04:17:03;;;;;;;;;;;2.60;99.90;;;;;;5078048;28;19939;-75
2022/11/14 04:19:29;;;;;;;;;;;2.60;99.90;;;;;;5097384;28;19919;-75
2022/11/14 04:21:54;;;;;;;;;;;2.60;99.90;;;;;;5097458;28;19912;-75
2022/11/14 04:24:20;;;;;;;;;;;2.60;99.90;;;;;;5097301;28;19919;-75
2022/11/14 04:26:46;;;;;;;;;;;2.60;99.90;;;;;;5097673;28;19963;-75
2022/11/14 04:29:11;;;;;;;;;;;2.60;99.90;;;;;;5095709;28;19919;-78
2022/11/14 04:31:37;;;;;;;;;;;2.60;99.90;;;;;;5095872;28;19916;-76
2022/11/14 04:34:02;;;;;;;;;;;2.70;99.90;;;;;;5095317;28;19912;-75
2022/11/14 04:36:28;;;;;;;;;;;2.60;99.90;;;;;;5078580;28;20267;-75
2022/11/14 04:38:53;;;;;;;;;;;2.70;99.90;;;;;;5096457;28;19912;-75
2022/11/14 04:41:19;;;;;;;;;;;2.70;99.90;;;;;;5096871;28;19916;-75
2022/11/14 04:43:44;;;;;;;;;;;2.70;99.90;;;;;;5078580;28;20062;-75
2022/11/14 04:46:10;;;;;;;;;;;2.70;99.90;;;;;;5095960;28;19978;-75
2022/11/14 04:48:35;;;;;;;;;;;2.70;99.90;;;;;;5096344;28;19939;-75
2022/11/14 04:51:01;;;;;;;;;;;2.70;99.90;;;;;;5078108;28;19912;-75
2022/11/14 04:53:26;;;;;;;;;;;2.60;99.90;;;;;;5077874;28;19918;-78
2022/11/14 04:55:52;;;;;;;;;;;2.60;99.90;;;;;;5094173;28;19998;-78
2022/11/14 04:58:17;;;;;;;;;;;2.60;99.90;;;;;;5095259;28;20371;-78
2022/11/14 05:00:43;;;;;;;;;;;2.70;99.90;;;;;;5079641;28;19912;-78
2022/11/14 05:03:09;;;;;;;;;;;2.70;99.90;;;;;;5095149;28;19912;-78
2022/11/14 05:05:34;;;;;;;;;;;2.70;99.90;;;;;;5095454;28;19932;-78
2022/11/14 05:08:00;;;;;;;;;;;2.70;99.90;;;;;;5094856;28;20014;-78
2022/11/14 05:10:25;;;;;;;;;;;2.70;99.90;;;;;;5092358;28;19923;-77
2022/11/14 05:12:54;;;;;;;;;;;2.70;99.90;;;;;;5095046;28;19926;-78
2022/11/14 05:15:20;;;;;;;;;;;2.60;99.90;;;;;;5076729;28;20325;-78
2022/11/14 05:17:45;;;;;;;;;;;2.60;99.90;;;;;;5094739;28;19920;-78
2022/11/14 05:20:11;;;;;;;;;;;2.60;99.90;;;;;;5086181;28;20025;-78
2022/11/14 05:22:37;;;;;;;;;;;2.60;99.90;;;;;;5093519;28;20288;-77
2022/11/14 05:25:02;;;;;;;;;;;2.50;99.90;;;;;;5094271;28;19934;-77
2022/11/14 05:27:28;;;;;;;;;;;2.50;99.90;;;;;;5094242;28;19908;-77
2022/11/14 05:29:54;;;;;;;;;;;2.50;99.90;;;;;;5093730;28;19913;-78
2022/11/14 05:32:20;;;;;;;;;;;2.50;99.90;;;;;;5094242;28;19920;-77
2022/11/14 05:34:46;;;;;;;;;;;2.50;99.90;;;;;;5094930;28;19913;-77
2022/11/14 05:37:12;;;;;;;;;;;2.40;99.90;;;;;;5076626;28;19961;-78
2022/11/14 05:39:37;;;;;;;;;;;2.40;99.90;;;;;;5095042;28;19908;-78
2022/11/14 05:42:03;;;;;;;;;;;2.50;99.90;;;;;;5079544;28;19913;-77
2022/11/14 05:44:28;;;;;;;;;;;2.50;99.90;;;;;;5094153;28;19955;-77
2022/11/14 05:46:54;;;;;;;;;;;2.50;99.90;;;;;;5094907;28;19912;-77
2022/11/14 05:49:19;;;;;;;;;;;2.50;99.90;;;;;;5095209;28;19958;-78
2022/11/14 05:51:45;;;;;;;;;;;2.50;99.90;;;;;;5077152;28;19939;-77
2022/11/14 05:54:10;;;;;;;;;;;2.50;99.90;;;;;;5076260;28;19935;-77
2022/11/14 05:56:36;;;;;;;;;;;2.40;99.90;;;;;;5094688;28;19912;-78
2022/11/14 05:59:01;;;;;;;;;;;2.40;99.90;;;;;;5076805;28;20037;-77
2022/11/14 06:01:27;;;;;;;;;;;2.40;99.90;;;;;;5094629;28;19962;-77
2022/11/14 06:03:53;;;;;;;;;;;2.40;99.90;;;;;;5094135;28;19916;-77
2022/11/14 06:06:19;;;;;;;;;;;2.50;99.90;;;;;;5093292;28;19956;-77
2022/11/14 06:08:45;;;;;;;;;;;2.50;99.90;;;;;;5094247;28;19965;-77
2022/11/14 06:11:14;;;;;;;;;;;2.50;99.90;;;;;;5094868;28;19912;-77
2022/11/14 06:13:40;;;;;;;;;;;2.50;99.90;;;;;;5075952;28;19908;-77
2022/11/14 06:16:07;;;;;;;;;;;2.50;99.90;;;;;;5094640;28;19923;-77
2022/11/14 06:18:32;;;;;;;;;;;2.50;99.90;;;;;;5094003;28;19912;-77
2022/11/14 06:20:59;;;;;;;;;;;2.50;99.90;;;;;;5076116;28;19947;-77
2022/11/14 06:23:24;;;;;;;;;;;2.50;99.90;;;;;;5093701;28;19912;-77
2022/11/14 06:25:50;;;;;;;;;;;2.40;99.90;;;;;;5094201;28;19915;-77
2022/11/14 06:28:15;;;;;;;;;;;2.40;99.90;;;;;;5094044;28;19916;-77
2022/11/14 06:30:41;;;;;;;;;;;2.40;99.90;;;;;;5093826;28;19912;-77
2022/11/14 06:33:06;;;;;;;;;;;2.40;99.90;;;;;;5093827;28;19913;-77
2022/11/14 06:35:32;;;;;;;;;;;2.40;99.90;;;;;;5093888;28;19912;-77
2022/11/14 06:38:00;;;;;;;;;;;2.50;99.90;;;;;;5093543;28;20018;-76
2022/11/14 06:40:26;;;;;;;;;;;2.50;99.90;;;;;;5092632;28;19916;-77
2022/11/14 06:42:54;;;;;;;;;;;2.50;99.90;;;;;;5083583;28;20402;-77
2022/11/14 06:45:19;;;;;;;;;;;2.50;99.90;;;;;;5093772;28;19912;-77
2022/11/14 06:47:45;;;;;;;;;;;2.50;99.90;;;;;;5093759;28;19917;-77
2022/11/14 06:50:10;;;;;;;;;;;2.50;99.90;;;;;;5092378;28;19913;-76
2022/11/14 06:52:36;;;;;;;;;;;2.50;99.90;;;;;;5092837;28;19908;-77
2022/11/14 06:55:02;;;;;;;;;;;2.50;99.90;;;;;;5092530;28;19915;-76
2022/11/14 06:57:27;;;;;;;;;;;2.50;99.90;;;;;;5093050;28;19916;-77
2022/11/14 06:59:53;;;;;;;;;;;2.60;99.90;;;;;;5093627;28;19912;-77
2022/11/14 07:02:18;;;;;;;;;;;2.70;99.90;;;;;;5093225;28;19913;-74
2022/11/14 07:04:46;;;;;;;;;;;2.70;99.90;;;;;;5093407;28;20421;-77
2022/11/14 07:07:12;;;;;;;;;;;2.70;99.90;;;;;;5093656;28;20288;-77
2022/11/14 07:09:37;;;;;;;;;;;2.70;99.90;;;;;;5093450;28;19912;-77
2022/11/14 07:12:03;;;;;;;;;;;2.80;99.90;;;;;;5093581;28;19950;-77
2022/11/14 07:14:29;;;;;;;;;;;2.80;99.90;;;;;;5075351;28;19919;-77
2022/11/14 07:16:54;;;;;;;;;;;2.90;99.90;;;;;;5093618;28;19939;-77
2022/11/14 07:19:20;;;;;;;;;;;2.90;99.90;;;;;;5092181;28;20291;-77
2022/11/14 07:21:45;;;;;;;;;;;2.90;99.90;;;;;;5092583;28;19922;-75
2022/11/14 07:24:11;;;;;;;;;;;3.00;99.90;;;;;;5093035;28;19961;-77
2022/11/14 07:26:36;;;;;;;;;;;3.00;99.90;;;;;;5091967;28;19919;-77
2022/11/14 07:29:02;;;;;;;;;;;3.10;99.90;;;;;;5092552;28;20426;-77
2022/11/14 07:31:28;;;;;;;;;;;3.20;99.90;;;;;;5075677;28;19917;-77
2022/11/14 07:33:54;;;;;;;;;;;3.20;99.90;;;;;;5093630;28;19908;-77
2022/11/14 07:36:20;;;;;;;;;;;3.30;99.90;;;;;;5092629;28;19912;-77
2022/11/14 07:38:45;;;;;;;;;;;3.40;99.90;;;;;;5092909;28;19932;-77
2022/11/14 07:41:12;;;;;;;;;;;3.40;99.90;;;;;;5093335;28;19947;-77
2022/11/14 07:43:37;;;;;;;;;;;3.50;99.90;;;;;;5093176;28;19908;-77
2022/11/14 07:46:05;;;;;;;;;;;3.60;99.90;;;;;;5075002;28;19915;-77
2022/11/14 07:48:31;;;;;;;;;;;3.60;99.90;;;;;;5093049;28;20113;-77
2022/11/14 07:50:57;;;;;;;;;;;3.70;99.90;;;;;;5093187;28;19995;-77
2022/11/14 07:53:23;;;;;;;;;;;3.80;99.90;;;;;;5094956;28;19930;-77
2022/11/14 07:55:48;;;;;;;;;;;3.90;99.90;;;;;;5078780;28;20064;-77
2022/11/14 07:58:14;;;;;;;;;;;4.00;99.90;;;;;;5096629;28;19978;-77
2022/11/14 08:00:39;;;;;;;;;;;4.10;99.90;;;;;;5096700;28;19958;-77
2022/11/14 08:03:06;;;;;;;;;;;4.20;99.90;;;;;;5095353;28;19921;-77
2022/11/14 08:05:31;;;;;;;;;;;4.30;99.90;;;;;;5096865;28;19913;-77
2022/11/14 08:07:57;;;;;;;;;;;4.40;99.90;;;;;;5096498;28;19920;-77
2022/11/14 08:10:22;;;;;;;;;;;4.50;99.90;;;;;;5096405;28;19919;-77
2022/11/14 08:12:55;;;;;;;;;;;4.60;99.90;;;;;;5096456;28;19913;-77
2022/11/14 08:15:21;;;;;;;;;;;4.60;99.90;;;;;;5096901;28;20264;-77
2022/11/14 08:17:46;;;;;;;;;;;4.70;99.90;;;;;;5096231;28;19934;-76
2022/11/14 08:20:12;;;;;;;;;;;4.80;99.90;;;;;;5078402;28;19958;-77
2022/11/14 08:22:38;;;;;;;;;;;4.80;99.90;;;;;;5096477;28;19919;-77
2022/11/14 08:25:03;;;;;;;;;;;5.00;99.90;;;;;;5077823;28;19916;-77
2022/11/14 08:27:29;;;;;;;;;;;5.00;99.90;;;;;;5096261;28;19913;-77
2022/11/14 08:29:54;;;;;;;;;;;5.10;99.90;;;;;;5095255;28;19920;-77
2022/11/14 08:32:20;;;;;;;;;;;5.20;99.90;;;;;;5095782;28;19912;-77
2022/11/14 08:34:46;;;;;;;;;;;5.30;99.90;;;;;;5094501;28;19916;-77
2022/11/14 08:37:11;;;;;;;;;;;5.40;99.90;;;;;;5094993;28;19916;-77
2022/11/14 08:39:37;;;;;;;;;;;5.50;99.90;;;;;;5095980;28;20380;-77
2022/11/14 08:42:02;;;;;;;;;;;5.70;99.90;;;;;;5095959;28;19908;-77
2022/11/14 08:44:28;;;;;;;;;;;5.80;99.90;;;;;;5096609;28;19974;-77
2022/11/14 08:46:53;;;;;;;;;;;5.90;99.90;;;;;;5095917;28;19977;-77
2022/11/14 08:49:19;;;;;;;;;;;6.00;99.90;;;;;;5095740;28;19912;-77
2022/11/14 08:51:45;;;;;;;;;;;6.20;99.90;;;;;;5096166;28;20318;-77
2022/11/14 08:54:10;;;;;;;;;;;6.30;99.90;;;;;;5095730;28;19915;-77
2022/11/14 08:56:36;;;;;;;;;;;6.50;99.90;;;;;;5095518;28;19916;-77
2022/11/14 08:59:02;;;;;;;;;;;6.60;99.90;;;;;;5077597;28;19912;-77
2022/11/14 09:01:28;;;;;;;;;;;6.70;99.90;;;;;;5094765;28;19908;-77
2022/11/14 09:03:53;;;;;;;;;;;6.80;99.90;;;;;;5095131;28;19908;-77
2022/11/14 09:06:19;;;;;;;;;;;6.90;99.90;;;;;;5079394;28;20440;-77
2022/11/14 09:08:45;;;;;;;;;;;7.00;99.90;;;;;;5095289;28;20279;-78
2022/11/14 09:11:10;;;;;;;;;;;7.10;99.90;;;;;;5095444;28;20296;-77
2022/11/14 09:13:36;;;;;;;;;;;7.20;99.90;;;;;;5095402;28;19946;-77
2022/11/14 09:16:01;;;;;;;;;;;7.30;99.90;;;;;;5095394;28;19966;-77
2022/11/14 09:18:28;;;;;;;;;;;7.40;99.90;;;;;;5095189;28;19912;-77
2022/11/14 09:20:58;;;;;;;;;;;7.40;99.90;;;;;;5077101;28;20341;-77
2022/11/14 09:23:24;;;;;;;;;;;7.50;99.90;;;;;;5095999;28;19908;-78
2022/11/14 09:25:49;;;;;;;;;;;7.70;99.90;;;;;;5093744;28;20230;-77
2022/11/14 09:28:15;;;;;;;;;;;7.80;99.90;;;;;;5095151;28;19920;-78
2022/11/14 09:30:41;;;;;;;;;;;7.90;99.90;;;;;;5095017;28;20280;-77
2022/11/14 09:33:07;;;;;;;;;;;8.00;99.90;;;;;;5094822;28;19942;-76
2022/11/14 09:35:32;;;;;;;;;;;8.10;99.90;;;;;;5094691;28;19919;-77
2022/11/14 09:37:59;;;;;;;;;;;8.30;99.90;;;;;;5093380;28;20018;-76
2022/11/14 09:40:24;;;;;;;;;;;8.40;99.90;;;;;;5094656;28;19957;-77
2022/11/14 09:43:04;;;;;;;;;;;8.50;99.90;;;;;;5094723;28;19912;-77
2022/11/14 09:45:31;;;;;;;;;;;8.60;99.90;;;;;;5076758;28;19908;-78
2022/11/14 09:48:03;;;;;;;;;;;8.70;99.90;;;;;;5076454;28;19916;-77
2022/11/14 09:50:31;;;;;;;;;;;8.90;99.90;;;;;;5095014;28;19943;-78
2022/11/14 09:53:17;;;;;;;;;;;9.00;99.90;;;;;;5094852;28;20386;-77
2022/11/14 09:55:43;;;;;;;;;;;9.10;99.90;;;;;;5093334;28;20360;-77
2022/11/14 09:58:13;;;;;;;;;;;9.30;99.90;;;;;;5082611;28;19954;-77
2022/11/14 10:01:05;;;;;;;;;;;9.40;99.90;;;;;;5090006;28;19931;-77
2022/11/14 10:03:34;;;;;;;;;;;9.60;99.90;;;;;;5077897;28;19908;-76
2022/11/14 10:06:21;;;;;;;;;;;9.70;99.90;;;;;;5084930;28;19959;-77
2022/11/14 10:09:11;;;;;;;;;;;9.80;99.90;;;;;;5076045;28;19938;-77
2022/11/14 10:11:39;;;;;;;;;;;9.90;99.90;;;;;;5094793;28;19994;-77
2022/11/14 10:14:05;;;;;;;;;;;10.00;99.90;;;;;;5094505;28;19908;-77
2022/11/14 10:16:30;;;;;;;;;;;10.00;99.90;;;;;;5093521;28;19914;-77
2022/11/14 10:19:14;;;;;;;;;;;10.20;99.90;;;;;;5094132;28;19916;-77
2022/11/14 10:21:46;;;;;;;;;;;10.30;99.90;;;;;;5094076;28;19958;-77
2022/11/14 10:24:17;;;;;;;;;;;10.40;99.90;;;;;;5093544;28;20265;-77
2022/11/14 10:26:51;;;;;;;;;;;10.40;99.90;;;;;;5091536;28;19908;-78
2022/11/14 10:29:20;;;;;;;;;;;10.40;99.90;;;;;;5094180;28;19912;-77
2022/11/14 10:31:46;;;;;;;;;;;10.60;99.90;;;;;;5093280;28;19912;-77
2022/11/14 10:34:14;;;;;;;;;;;10.80;99.90;;;;;;5093962;28;19908;-78
2022/11/14 10:36:43;;;;;;;;;;;10.90;99.90;;;;;;5075985;28;20383;-76
2022/11/14 10:39:16;;;;;;;;;;;11.00;99.90;;;;;;5093982;28;19940;-77
2022/11/14 10:41:43;;;;;;;;;;;11.10;99.90;;;;;;5094304;28;19909;-77
2022/11/14 10:44:15;;;;;;;;;;;11.30;99.90;;;;;;5094484;28;19961;-78
2022/11/14 10:46:44;;;;;;;;;;;11.50;99.90;;;;;;5094349;28;19961;-77
2022/11/14 10:49:29;;;;;;;;;;;11.70;99.90;;;;;;5093279;28;19908;-76
2022/11/14 10:51:57;;;;;;;;;;;11.90;99.90;;;;;;5082999;22;19969;-69
2022/11/14 10:54:40;;;;;;;;;;;12.10;99.90;;;;;;5033726;28;19913;-69
2022/11/14 10:57:13;;;;;;;;;;;12.20;96.10;;;;;;5033255;28;20325;-69
2022/11/14 10:59:39;;;;;;;;;;;12.30;94.70;;;;;;5033845;28;19909;-69
2022/11/14 11:02:04;;;;;;;;;;;12.40;92.60;;;;;;5033584;28;19916;-69
2022/11/14 11:04:35;;;;;;;;;;;12.60;92.10;;;;;;5033640;28;20373;-69
2022/11/14 11:07:07;;;;;;;;;;;12.80;90.00;;;;;;5033958;28;20293;-71
2022/11/14 11:12:19;;;;;;;;;;;13.10;90.30;;;;;;5033872;28;19978;-71
2022/11/14 11:14:45;;;;;;;;;;;13.30;82.90;;;;;;5033266;28;20423;-71
2022/11/14 11:17:11;;;;;;;;;;;13.50;83.50;;;;;;5033400;28;19920;-71
2022/11/14 11:19:40;;;;;;;;;;;13.70;83.80;;;;;;5033193;28;19910;-71
2022/11/14 11:22:24;;;;;;;;;;;13.70;84.20;;;;;;5033166;28;19913;-70
2022/11/14 11:24:50;;;;;;;;;;;13.70;82.80;;;;;;5033455;28;19917;-70
2022/11/14 11:27:22;;;;;;;;;;;13.70;82.70;;;;;;5035172;28;20277;-71
2022/11/14 11:30:06;;;;;;;;;;;13.80;79.10;;;;;;5037494;28;19909;-71
2022/11/14 11:32:31;;;;;;;;;;;13.80;75.30;;;;;;5037102;28;19916;-71
2022/11/14 11:34:59;;;;;;;;;;;13.80;74.70;;;;;;5037088;28;19913;-71
2022/11/14 11:37:34;;;;;;;;;;;13.90;76.00;;;;;;5036845;28;19920;-71
2022/11/14 11:40:01;;;;;;;;;;;13.90;76.00;;;;;;5036703;28;19909;-71
2022/11/14 11:42:32;;;;;;;;;;;13.90;74.90;;;;;;5036673;28;20051;-71
2022/11/14 11:44:59;;;;;;;;;;;13.90;75.80;;;;;;5036919;28;20380;-70
2022/11/14 11:47:25;;;;;;;;;;;13.80;82.40;;;;;;5036446;28;19909;-69
2022/11/14 11:49:51;;;;;;;;;;;13.80;84.00;;;;;;5018820;28;19909;-71
2022/11/14 11:52:52;;;;;;;;;;;13.70;86.00;;;;;;5018763;28;19921;-71
2022/11/14 11:55:25;;;;;;;;;;;13.70;84.10;;;;;;4959561;28;20385;-70
2022/11/14 11:57:55;;;;;;;;;;;13.70;85.10;;;;;;5026575;28;19925;-70
2022/11/14 12:00:21;;;;;;;;;;;13.70;83.50;;;;;;5036652;28;19909;-69
2022/11/14 12:02:48;;;;;;;;;;;13.70;82.50;;;;;;5036292;28;20436;-70
2022/11/14 12:05:16;;;;;;;;;;;13.80;82.50;;;;;;5036174;28;19913;-70
2022/11/14 12:08:06;;;;;;;;;;;13.90;82.00;;;;;;5036216;28;19913;-70
2022/11/14 12:10:38;;;;;;;;;;;13.90;82.30;;;;;;5029036;28;19909;-70
2022/11/14 12:13:18;;;;;;;;;;;14.00;83.60;;;;;;5036429;28;20285;-69
2022/11/14 12:15:50;;;;;;;;;;;14.00;82.20;;;;;;5018286;28;19915;-70
2022/11/14 12:18:19;;;;;;;;;;;14.10;79.30;;;;;;5035867;28;20357;-71
2022/11/14 12:20:56;;;;;;;;;;;14.10;80.20;;;;;;5036581;28;20000;-70
2022/11/14 12:23:31;;;;;;;;;;;14.20;79.30;;;;;;5035959;28;19996;-69
2022/11/14 12:26:11;;;;;;;;;;;14.20;77.80;;;;;;5036185;28;20273;-71
2022/11/14 12:28:45;;;;;;;;;;;14.20;80.30;;;;;;5017961;28;20369;-71
2022/11/14 12:31:13;;;;;;;;;;;14.20;76.20;;;;;;5036100;28;19917;-70
2022/11/14 12:33:42;;;;;;;;;;;14.30;75.80;;;;;;5036279;28;20353;-70
2022/11/14 12:36:09;;;;;;;;;;;14.30;73.90;;;;;;5035673;28;19909;-70
2022/11/14 12:38:49;;;;;;;;;;;14.30;74.20;;;;;;5034707;28;19913;-71
2022/11/14 12:41:26;;;;;;;;;;;14.40;78.10;;;;;;5035944;28;19909;-71
2022/11/14 12:43:51;;;;;;;;;;;14.40;75.30;;;;;;5035544;28;20015;-72
2022/11/14 12:46:17;;;;;;;;;;;14.50;74.80;;;;;;5035853;28;20373;-71
2022/11/14 12:48:46;;;;;;;;;;;14.50;73.90;;;;;;5001312;28;19924;-71
2022/11/14 12:51:24;;;;;;;;;;;14.60;73.80;;;;;;5035697;28;19909;-71
2022/11/14 12:53:50;;;;;;;;;;;14.60;72.70;;;;;;5035311;28;19963;-71
2022/11/14 12:56:30;;;;;;;;;;;14.60;70.50;;;;;;5035321;28;19913;-71
2022/11/14 12:59:14;;;;;;;;;;;14.60;73.00;;;;;;5035214;28;19919;-72
2022/11/14 13:01:45;;;;;;;;;;;14.60;73.90;;;;;;5035215;28;19916;-71
2022/11/14 13:04:11;;;;;;;;;;;14.50;74.70;;;;;;5035454;28;19910;-71
2022/11/14 13:06:36;;;;;;;;;;;14.30;75.70;;;;;;5035295;28;19915;-71
2022/11/14 13:09:08;;;;;;;;;;;14.30;77.00;;;;;;5035656;28;19959;-71
2022/11/14 13:22:39;;;;;;;;;;;14.10;78.40;;;;;;5035112;28;19916;-71
2022/11/14 13:25:05;;;;;;;;;;;14.00;79.10;;;;;;5034762;28;19920;-71
2022/11/14 13:27:34;;;;;;;;;;;14.00;80.60;;;;;;5034980;28;19909;-71
2022/11/14 13:30:01;;;;;;;;;;;13.90;81.10;;;;;;5035210;28;19992;-71
2022/11/14 13:32:43;;;;;;;;;;;13.90;82.00;;;;;;5034581;28;19916;-71
2022/11/14 13:35:27;;;;;;;;;;;13.90;81.80;;;;;;5034649;28;20379;-71
2022/11/14 13:37:56;;;;;;;;;;;13.80;81.80;;;;;;5034866;28;19966;-71
2022/11/14 13:40:21;;;;;;;;;;;13.70;82.80;;;;;;5034471;28;19909;-71
2022/11/14 13:42:47;;;;;;;;;;;13.60;82.80;;;;;;5034421;28;20019;-71
2022/11/14 13:45:36;;;;;;;;;;;13.50;83.90;;;;;;5034652;28;19963;-71
2022/11/14 13:48:14;;;;;;;;;;;13.50;84.90;;;;;;5026263;28;19933;-71
2022/11/14 13:50:41;;;;;;;;;;;13.40;84.20;;;;;;5016542;28;19910;-71
2022/11/14 13:53:15;;;;;;;;;;;13.30;84.70;;;;;;5016395;28;19921;-71
2022/11/14 13:55:49;;;;;;;;;;;13.30;84.00;;;;;;5033095;28;20262;-71
2022/11/14 13:58:18;;;;;;;;;;;13.30;85.80;;;;;;5034069;28;19963;-71
2022/11/14 14:00:52;;;;;;;;;;;13.20;87.20;;;;;;5034090;28;19963;-71
2022/11/14 14:03:21;;;;;;;;;;;13.20;86.70;;;;;;5034025;28;19967;-71
2022/11/14 14:06:05;;;;;;;;;;;13.10;87.90;;;;;;5033814;28;19909;-71
2022/11/14 14:08:42;;;;;;;;;;;13.10;87.90;;;;;;5032745;28;20423;-71
2022/11/14 14:11:31;;;;;;;;;;;13.10;88.60;;;;;;5032919;28;19963;-71
2022/11/14 14:14:35;;;;;;;;;;;13.10;90.10;;;;;;5034490;28;20284;-71
2022/11/14 14:17:12;;;;;;;;;;;13.10;89.50;;;;;;4973195;28;19916;-71
2022/11/14 14:19:42;;;;;;;;;;;13.00;90.60;;;;;;4972298;28;20468;-71
2022/11/14 14:22:08;;;;;;;;;;;12.90;91.60;;;;;;5007462;28;19909;-71
2022/11/14 14:24:34;;;;;;;;;;;12.90;91.80;;;;;;5034012;28;20419;-71
2022/11/14 14:27:03;;;;;;;;;;;12.90;91.80;;;;;;5033906;28;20305;-71
2022/11/14 14:29:34;;;;;;;;;;;12.80;91.10;;;;;;5015950;28;19909;-71
2022/11/14 14:32:11;;;;;;;;;;;12.80;91.20;;;;;;5034242;28;19916;-71
2022/11/14 14:34:36;;;;;;;;;;;12.90;91.80;;;;;;5033670;28;20431;-71
2022/11/14 14:37:02;;;;;;;;;;;12.80;92.00;;;;;;5033485;28;19913;-71
2022/11/14 14:39:27;;;;;;;;;;;12.80;92.50;;;;;;5033625;28;19913;-71
2022/11/14 14:41:54;;;;;;;;;;;12.80;93.20;;;;;;5033774;28;20280;-71
2022/11/14 14:44:28;;;;;;;;;;;12.80;93.60;;;;;;5033478;28;20274;-71